Centralia, MO (65240)

5:07 PM CDT on August 29, 2015 (GMT -0500)
Downtown Centralia | | Change Station
CLOSE
Current Station
Personal Weather Station
Location: Centralia, MO
Elevation: 892 ft
Nearby Weather Stations

Elev 892 ft 39.21 °N, 92.14 °W | Updated 27 seconds ago

Overcast
Overcast
80.1 °F
Feels Like 83 °F
N
0.0
Wind Variable Wind from NW
Gusts 0.0 mph

Today
High -- | Low -- °F
--% Chance of Precip.
Yesterday
High -- | Low -- °F
Precip. -- in
6:34 AM 7:44 PM
Full, 100% visible
Pressure 29.96 in
Visibility 10.0 miles
Clouds Mostly Cloudy 4300 ft
Overcast 5500 ft
Heat Index 83 °F
Dew Point 69 °F
Humidity 70%
Rainfall 0.00 in
Snow Depth Not available.
UV 1.0 out of 12
Pollen 7.50 out of 12
Air Quality Not available.
Flu Activity Not available.
METAR KCOU 292154Z 24006KT 10SM BKN043 OVC055 27/19 A2998 RMK AO2 SLP145 T02670194
Pressure 29.96 in
Visibility 10.0 miles
Clouds Mostly Cloudy 4300 ft
Overcast 5500 ft
Heat Index 83 °F
Dew Point 69 °F
Humidity 70%
Rainfall 0.00 in
Snow Depth Not available.
UV 1.0 out of 12
Pollen 7.50 out of 12
Air Quality Not available.
Flu Activity Not available.
METAR KCOU 292154Z 24006KT 10SM BKN043 OVC055 27/19 A2998 RMK AO2 SLP145 T02670194

10-Day Weather Forecast

×

Almanac

Astronomy

Aug. 29, 2015 Rise Set
Actual Time
Civil Twilight
Nautical Twilight
Astronomical Twilight
Moon
Length of Visible Light
Length of Day
Tomorrow will be .
, % of the Moon is Illuminated

Today's Extremes

State Highs State Lows

Community

WunderPhotos

Upload Photos

1,850,787 photos uploaded!

WunderBlogs® & News

Nearby

Air Quality

  Air Quality AQ Index Pollutant
Not available.

Snow Depth

Station Depth Elevation

Earthquake Activity

City Distance Mag. Time & Date
Minimum magnitude displayed is 2.5.

Coastal Water Temperatures

Place Temperature

Stations

Nearby Weather Stations

Station Location Temp. Windchill Dew Point Humidity Wind Precip. Elev Updated Type